createdAt,value
2022-11-15T00:04:54.584Z,56.98
2022-11-15T00:10:15.224Z,57.13
2022-11-15T00:15:36.253Z,56.89
2022-11-15T00:20:57.044Z,56.88
2022-11-15T00:26:17.566Z,57.21
2022-11-15T00:31:37.919Z,57.33
2022-11-15T00:36:58.243Z,57.29
2022-11-15T00:42:18.457Z,57.48
2022-11-15T00:47:38.848Z,57.61
2022-11-15T00:52:59.265Z,57.61
2022-11-15T00:58:19.476Z,57.32
2022-11-15T01:03:40.412Z,56.60
2022-11-15T01:09:00.754Z,57.55
2022-11-15T01:14:25.231Z,58.49
2022-11-15T01:19:46.005Z,58.03
2022-11-15T01:25:06.225Z,58.01
2022-11-15T01:30:26.592Z,57.50
2022-11-15T01:35:46.962Z,58.21
2022-11-15T01:41:07.837Z,58.20
2022-11-15T01:46:38.875Z,57.98
2022-11-15T01:51:59.917Z,58.15
2022-11-15T01:57:20.636Z,58.14
2022-11-15T02:02:41.449Z,58.43
2022-11-15T02:08:02.374Z,58.66
2022-11-15T02:13:22.839Z,58.30
2022-11-15T02:18:49.624Z,58.44
2022-11-15T02:24:37.279Z,58.14
2022-11-15T02:30:22.299Z,58.29
2022-11-15T02:35:48.785Z,57.91
2022-11-15T02:41:18.181Z,57.77
2022-11-15T02:47:09.122Z,57.72
2022-11-15T02:52:29.132Z,57.44
2022-11-15T02:58:16.821Z,57.73
2022-11-15T03:04:03.759Z,57.52
2022-11-15T03:09:51.577Z,57.66
2022-11-15T03:15:39.317Z,57.77
2022-11-15T03:21:04.334Z,57.74
2022-11-15T03:26:26.530Z,57.79
2022-11-15T03:31:51.904Z,57.95
2022-11-15T03:37:15.213Z,57.78
2022-11-15T03:42:52.863Z,57.80
2022-11-15T03:48:23.940Z,57.62
2022-11-15T03:53:44.302Z,57.41
2022-11-15T03:59:04.542Z,57.59
2022-11-15T04:04:24.881Z,57.44
2022-11-15T04:10:03.505Z,57.94
2022-11-15T04:15:25.835Z,57.34
2022-11-15T04:21:04.434Z,57.86
2022-11-15T04:26:25.002Z,57.84
2022-11-15T04:31:45.389Z,57.93
2022-11-15T04:37:14.644Z,58.00
2022-11-15T04:42:35.164Z,58.17
2022-11-15T04:47:55.571Z,57.62
2022-11-15T04:53:15.828Z,57.80
2022-11-15T04:58:36.391Z,58.04
2022-11-15T05:04:14.991Z,58.11
2022-11-15T05:09:35.193Z,57.87
2022-11-15T05:14:55.521Z,57.98
2022-11-15T05:20:15.933Z,58.36
2022-11-15T05:25:37.045Z,58.15
2022-11-15T05:31:09.244Z,57.99
2022-11-15T05:36:38.900Z,58.34
2022-11-15T05:42:07.257Z,57.84
2022-11-15T05:47:30.504Z,58.28
2022-11-15T05:52:51.857Z,58.23
2022-11-15T05:58:12.356Z,57.98
2022-11-15T06:03:33.228Z,57.79
2022-11-15T06:08:54.004Z,57.45
2022-11-15T06:14:14.031Z,57.82
2022-11-15T06:19:34.432Z,58.15
2022-11-15T06:24:54.700Z,58.15
2022-11-15T06:30:15.393Z,58.63
2022-11-15T06:35:36.712Z,58.47
2022-11-15T06:41:02.659Z,58.21
2022-11-15T06:46:23.178Z,58.31
2022-11-15T06:51:43.495Z,58.62
2022-11-15T06:57:05.593Z,58.20
2022-11-15T07:02:25.663Z,58.56
2022-11-15T07:07:53.283Z,58.41
2022-11-15T07:13:13.509Z,58.36
2022-11-15T07:18:38.636Z,58.22
2022-11-15T07:23:58.600Z,58.45
2022-11-15T07:29:19.030Z,58.22
2022-11-15T07:34:39.289Z,57.94
2022-11-15T07:39:59.733Z,57.73
2022-11-15T07:45:26.799Z,57.91
2022-11-15T07:50:47.132Z,58.04
2022-11-15T07:56:07.900Z,57.80
2022-11-15T08:01:28.341Z,57.72
2022-11-15T08:06:48.774Z,58.04
2022-11-15T08:12:09.234Z,57.63
2022-11-15T08:17:33.105Z,57.51
2022-11-15T08:22:53.754Z,57.13
2022-11-15T08:28:14.429Z,57.26
2022-11-15T08:33:35.156Z,57.33
2022-11-15T08:38:56.117Z,56.97
2022-11-15T08:44:16.547Z,56.80
2022-11-15T08:49:36.791Z,56.78
2022-11-15T08:54:57.112Z,56.82
2022-11-15T09:00:18.017Z,56.39
2022-11-15T09:05:38.986Z,56.31
2022-11-15T09:10:59.269Z,56.05
2022-11-15T09:16:19.711Z,56.11
2022-11-15T09:21:40.033Z,55.75
2022-11-15T09:27:00.466Z,55.88
2022-11-15T09:32:20.749Z,55.64
2022-11-15T09:37:41.356Z,55.61
2022-11-15T09:43:35.520Z,55.80
2022-11-15T09:48:58.253Z,55.57
2022-11-15T09:54:46.092Z,55.49
2022-11-15T10:05:26.486Z,55.50
2022-11-15T10:10:37.365Z,55.47
2022-11-15T10:15:39.299Z,55.30
2022-11-15T10:20:47.841Z,55.31
2022-11-15T10:25:54.233Z,55.09
2022-11-15T10:30:58.489Z,55.44
2022-11-15T10:36:16.258Z,55.09
2022-11-15T10:41:32.883Z,55.22
2022-11-15T10:46:48.606Z,54.85
2022-11-15T10:51:55.168Z,54.84
2022-11-15T10:57:00.715Z,55.09
2022-11-15T11:02:02.642Z,55.03
2022-11-15T11:07:22.536Z,54.98
2022-11-15T11:12:33.472Z,54.47
2022-11-15T11:17:59.559Z,54.69
2022-11-15T11:23:16.502Z,54.21
2022-11-15T11:28:40.435Z,54.20
2022-11-15T11:34:19.283Z,54.63
2022-11-15T11:39:45.395Z,54.26
2022-11-15T11:45:14.970Z,54.03
2022-11-15T11:50:20.922Z,54.29
2022-11-15T11:55:54.059Z,53.84
2022-11-15T12:01:01.206Z,53.60
2022-11-15T12:06:28.583Z,53.63
2022-11-15T12:11:38.227Z,53.57
2022-11-15T12:16:42.792Z,53.53
2022-11-15T12:22:11.620Z,53.03
2022-11-15T12:27:47.494Z,52.85
2022-11-15T12:33:01.045Z,52.42
2022-11-15T12:38:03.270Z,49.11
2022-11-15T12:43:14.536Z,45.71
2022-11-15T12:48:19.784Z,43.33
2022-11-15T12:53:25.011Z,42.78
2022-11-15T12:58:50.988Z,41.39
2022-11-15T13:04:22.925Z,40.52
2022-11-15T13:09:36.806Z,39.14
2022-11-15T13:14:40.519Z,38.34
2022-11-15T13:19:42.474Z,37.54
2022-11-15T13:24:44.559Z,36.61
2022-11-15T13:29:46.439Z,35.98
2022-11-15T13:34:53.684Z,35.20
2022-11-15T13:39:55.555Z,35.01
2022-11-15T13:45:02.970Z,34.21
2022-11-15T13:50:12.068Z,34.00
2022-11-15T13:55:19.933Z,34.12
2022-11-15T14:00:34.551Z,35.68
2022-11-15T14:05:36.683Z,38.15
2022-11-15T14:10:39.469Z,39.40
2022-11-15T14:15:41.249Z,40.89
2022-11-15T14:20:43.959Z,41.85
2022-11-15T14:25:58.079Z,42.60
2022-11-15T14:31:01.287Z,43.21
2022-11-15T14:36:05.113Z,43.55
2022-11-15T14:41:11.545Z,43.90
2022-11-15T14:46:13.376Z,44.21
2022-11-15T14:51:17.956Z,44.43
2022-11-15T14:56:19.823Z,44.99
2022-11-15T15:01:25.453Z,45.49
2022-11-15T15:06:27.999Z,45.33
2022-11-15T15:11:32.161Z,45.57
2022-11-15T15:16:34.030Z,45.80
2022-11-15T15:21:37.653Z,45.86
2022-11-15T15:26:40.187Z,46.24
2022-11-15T15:31:42.210Z,46.39
2022-11-15T15:36:44.067Z,46.52
2022-11-15T15:41:46.241Z,46.77
2022-11-15T15:46:48.126Z,47.05
2022-11-15T15:51:50.079Z,47.21
2022-11-15T15:56:56.007Z,47.21
2022-11-15T16:01:58.434Z,47.45
2022-11-15T16:07:01.957Z,47.70
2022-11-15T16:12:03.932Z,47.64
2022-11-15T16:17:06.305Z,48.25
2022-11-15T16:22:08.133Z,48.44
2022-11-15T16:27:18.085Z,48.49
2022-11-15T16:32:20.005Z,48.78
2022-11-15T16:37:24.294Z,48.83
2022-11-15T16:42:26.256Z,48.43
2022-11-15T16:47:28.211Z,49.13
2022-11-15T16:52:30.007Z,49.05
2022-11-15T16:57:31.821Z,48.80
2022-11-15T17:02:34.037Z,49.57
2022-11-15T17:07:36.416Z,49.50
2022-11-15T17:12:38.386Z,49.26
2022-11-15T17:17:41.413Z,49.40
2022-11-15T17:22:43.248Z,49.47
2022-11-15T17:27:45.156Z,50.00
2022-11-15T17:32:49.900Z,50.22
2022-11-15T17:37:52.848Z,50.08
2022-11-15T17:42:55.544Z,49.83
2022-11-15T17:47:57.388Z,50.14
2022-11-15T17:53:00.127Z,50.12
2022-11-15T17:58:01.934Z,50.30
2022-11-15T18:03:05.034Z,50.11
2022-11-15T18:08:10.203Z,50.80
2022-11-15T18:13:14.649Z,50.87
2022-11-15T18:18:16.530Z,50.67
2022-11-15T18:23:18.459Z,50.87
2022-11-15T18:28:20.520Z,50.89
2022-11-15T18:33:22.408Z,51.31
2022-11-15T18:38:24.293Z,51.56
2022-11-15T18:43:26.389Z,51.77
2022-11-15T18:48:31.197Z,51.57
2022-11-15T18:53:34.449Z,51.68
2022-11-15T18:58:40.117Z,51.98
2022-11-15T19:03:44.426Z,52.01
2022-11-15T19:08:48.854Z,52.52
2022-11-15T19:13:59.689Z,52.45
2022-11-15T19:19:04.543Z,52.53
2022-11-15T19:24:06.880Z,52.97
2022-11-15T19:29:13.872Z,53.22
2022-11-15T19:34:16.681Z,53.40
2022-11-15T19:39:18.701Z,53.54
2022-11-15T19:44:22.114Z,53.31
2022-11-15T19:49:23.989Z,53.40
2022-11-15T19:54:25.790Z,52.80
2022-11-15T19:59:27.680Z,53.42
2022-11-15T20:04:29.552Z,53.37
2022-11-15T20:09:31.377Z,53.09
2022-11-15T20:14:33.247Z,53.48
2022-11-15T20:19:35.162Z,53.08
2022-11-15T20:24:37.041Z,53.26
2022-11-15T20:29:43.651Z,53.22
2022-11-15T20:34:50.176Z,53.09
2022-11-15T20:39:55.669Z,53.42
2022-11-15T20:44:57.468Z,53.75
2022-11-15T20:50:14.954Z,53.31
2022-11-15T20:55:21.296Z,53.36
2022-11-15T21:00:25.827Z,53.45
2022-11-15T21:05:28.709Z,53.94
2022-11-15T21:10:51.357Z,54.08
2022-11-15T21:15:57.782Z,53.84
2022-11-15T21:21:04.497Z,53.97
2022-11-15T21:26:06.375Z,54.14
2022-11-15T21:31:09.198Z,54.11
2022-11-15T21:36:10.981Z,54.03
2022-11-15T21:41:12.755Z,54.01
2022-11-15T21:46:14.553Z,53.98
2022-11-15T21:51:16.371Z,54.29
2022-11-15T21:56:18.379Z,54.17
2022-11-15T22:01:56.377Z,54.23
2022-11-15T22:06:58.815Z,54.27
2022-11-15T22:12:00.767Z,54.17
2022-11-15T22:17:02.636Z,54.24
2022-11-15T22:22:04.825Z,54.26
2022-11-15T22:27:06.883Z,54.50
2022-11-15T22:32:08.760Z,54.59
2022-11-15T22:37:20.571Z,54.83
2022-11-15T22:42:24.114Z,54.66
2022-11-15T22:47:26.440Z,54.98
2022-11-15T22:52:28.325Z,54.78
2022-11-15T22:57:30.266Z,54.81
2022-11-15T23:02:32.140Z,54.90
2022-11-15T23:07:34.621Z,55.27
2022-11-15T23:12:55.272Z,55.62
2022-11-15T23:17:57.142Z,55.68
2022-11-15T23:22:59.389Z,56.18
2022-11-15T23:28:05.300Z,56.14
2022-11-15T23:33:25.872Z,56.28
2022-11-15T23:38:27.803Z,56.08
2022-11-15T23:43:30.022Z,56.46
2022-11-15T23:48:32.307Z,56.35
2022-11-15T23:53:34.542Z,56.55
2022-11-15T23:58:36.715Z,56.75
